Time;durP1;ratioP1;P1;durP2;ratioP2;P2;SDS_P1;SDS_P2;PMS_P1;PMS_P2;Temp;Humidity;BMP_temperature;BMP_pressure;BME280_temperature;BME280_humidity;BME280_pressure;Samples;Min_cycle;Max_cycle;Signal;HPM_P1;HPM_P2
2023/08/02 00:01:52;;;;;;;4.93;2.40;;;19.40;88.40;;;22.11;56.36;99900.88;4995618;28;20196;-59
2023/08/02 00:04:19;;;;;;;5.23;2.37;;;19.40;88.60;;;22.14;56.28;99907.59;4996741;28;20242;-56
2023/08/02 00:06:47;;;;;;;3.97;1.77;;;19.40;88.70;;;22.15;56.33;99901.16;4995214;28;20223;-59
2023/08/02 00:09:15;;;;;;;3.53;2.23;;;19.40;88.60;;;22.14;56.21;99904.91;4996549;28;20684;-58
2023/08/02 00:11:42;;;;;;;4.50;1.90;;;19.40;88.60;;;22.11;56.42;99908.13;4996549;28;20203;-60
2023/08/02 00:14:09;;;;;;;3.13;1.83;;;19.40;88.50;;;22.10;56.50;99917.25;4995402;28;20199;-58
2023/08/02 00:16:36;;;;;;;3.83;2.10;;;19.40;88.60;;;22.07;56.10;99915.91;4996507;28;20204;-59
2023/08/02 00:19:03;;;;;;;3.83;2.10;;;19.40;88.60;;;22.05;56.51;99911.88;4996236;28;20262;-59
2023/08/02 00:21:30;;;;;;;4.47;2.07;;;19.30;88.70;;;22.05;56.55;99922.59;4996457;28;20226;-59
2023/08/02 00:23:57;;;;;;;3.40;2.00;;;19.30;88.70;;;22.03;56.51;99919.41;4995199;28;20198;-58
2023/08/02 00:26:27;;;;;;;4.70;2.07;;;19.30;88.70;;;22.01;56.83;99910.81;4996306;28;20274;-60
2023/08/02 00:28:54;;;;;;;4.73;1.80;;;19.30;88.80;;;22.00;56.45;99909.22;4994840;28;20630;-59
2023/08/02 00:31:21;;;;;;;3.87;1.87;;;19.30;88.80;;;21.97;56.53;99910.53;4996396;28;20605;-60
2023/08/02 00:33:48;;;;;;;3.57;1.87;;;19.30;88.90;;;21.94;56.82;99915.66;4996569;28;20191;-60
2023/08/02 00:36:15;;;;;;;2.80;2.00;;;19.30;89.00;;;21.89;56.95;99908.44;4996169;28;20278;-60
2023/08/02 00:38:43;;;;;;;4.73;2.20;;;19.20;89.00;;;21.90;57.21;99903.84;4995685;28;20192;-63
2023/08/02 00:41:10;;;;;;;4.33;2.60;;;19.20;89.10;;;21.82;57.57;99899.00;4978664;28;20576;-59
2023/08/02 00:43:43;;;;;;;5.17;2.67;;;19.20;89.40;;;21.68;58.00;99897.94;5008935;28;20199;-58
2023/08/02 00:46:13;;;;;;;7.60;1.83;;;19.20;89.60;;;21.67;57.96;99899.00;5014873;28;20246;-60
2023/08/02 00:48:42;;;;;;;4.87;2.03;;;19.20;89.50;;;21.67;58.01;99896.31;5015711;28;20186;-60
2023/08/02 00:51:17;;;;;;;3.60;2.37;;;19.20;89.90;;;21.61;58.53;99895.50;5014987;28;20302;-60
2023/08/02 00:53:46;;;;;;;7.90;2.40;;;19.10;89.90;;;21.59;58.60;99898.47;5015376;28;20199;-55
2023/08/02 00:56:15;;;;;;;4.27;2.53;;;19.10;90.00;;;21.52;58.63;99895.25;5015410;28;20282;-60
2023/08/02 00:58:43;;;;;;;6.87;2.10;;;19.10;90.10;;;21.36;59.04;99882.91;5015454;28;20250;-60
2023/08/02 01:01:10;;;;;;;4.60;2.27;;;19.00;90.10;;;21.25;59.89;99886.63;5015458;28;20683;-56
2023/08/02 01:03:41;;;;;;;4.87;2.40;;;18.90;90.20;;;21.18;59.38;99886.09;5014361;28;20294;-58
2023/08/02 01:06:19;;;;;;;4.23;2.13;;;18.90;90.60;;;21.10;59.66;99881.28;5015066;28;20201;-57
2023/08/02 01:08:57;;;;;;;8.23;1.97;;;18.90;90.40;;;21.14;59.93;99884.22;5014797;28;20217;-58
2023/08/02 01:11:33;;;;;;;4.20;2.20;;;18.80;90.50;;;21.17;59.90;99889.84;5014290;28;20198;-58
2023/08/02 01:14:06;;;;;;;3.47;2.13;;;18.80;90.50;;;21.28;59.71;99885.31;5015240;28;20185;-56
2023/08/02 01:16:37;;;;;;;2.97;1.97;;;18.80;90.60;;;21.35;59.16;99886.66;5014958;28;20258;-59
2023/08/02 01:19:08;;;;;;;5.67;2.20;;;18.80;90.60;;;21.43;59.07;99888.00;5014356;28;20190;-59
2023/08/02 01:21:37;;;;;;;5.87;2.20;;;18.80;90.60;;;21.52;58.94;99884.53;5014051;28;20234;-56
2023/08/02 01:24:05;;;;;;;3.30;2.50;;;18.80;90.60;;;21.59;58.48;99887.75;5014995;28;20278;-58
2023/08/02 01:26:36;;;;;;;4.13;2.53;;;18.80;90.50;;;21.64;58.04;99894.19;5014847;28;20249;-57
2023/08/02 01:29:12;;;;;;;7.27;2.60;;;18.90;90.50;;;21.64;58.51;99884.28;5014512;28;20190;-58
2023/08/02 01:31:42;;;;;;;5.37;2.27;;;18.90;90.50;;;21.68;57.81;99884.56;5014532;28;20350;-57
2023/08/02 01:34:11;;;;;;;3.83;2.20;;;18.90;90.40;;;21.70;58.30;99888.56;5014805;28;20260;-60
2023/08/02 01:36:40;;;;;;;3.50;1.63;;;18.90;90.40;;;21.75;57.88;99885.09;5014394;28;20187;-59
2023/08/02 01:39:07;;;;;;;3.20;2.50;;;18.90;90.40;;;21.78;58.17;99887.22;5014063;28;20283;-60
2023/08/02 01:41:34;;;;;;;4.57;2.37;;;19.00;90.40;;;21.81;57.83;99889.34;5002931;28;20231;-59
2023/08/02 01:44:01;;;;;;;4.07;1.90;;;19.00;90.30;;;21.83;58.08;99892.56;5026759;28;20195;-56
2023/08/02 01:46:28;;;;;;;3.90;2.30;;;19.00;90.30;;;21.85;57.80;99885.09;5013288;28;20702;-59
2023/08/02 01:48:55;;;;;;;5.33;2.50;;;19.00;90.20;;;21.86;57.46;99890.19;5014184;28;20199;-59
2023/08/02 01:51:22;;;;;;;5.73;2.37;;;19.10;90.20;;;21.88;57.42;99889.91;5014311;28;20329;-59
2023/08/02 01:53:50;;;;;;;4.87;2.17;;;19.10;90.20;;;21.91;57.21;99889.38;5012987;28;20743;-58
2023/08/02 01:56:17;;;;;;;7.07;2.70;;;19.10;90.20;;;21.91;57.29;99878.66;5014214;28;20195;-59
2023/08/02 01:58:45;;;;;;;6.23;2.40;;;19.10;90.10;;;21.90;57.19;99877.06;5014140;28;20201;-58
2023/08/02 02:01:12;;;;;;;3.03;1.90;;;19.10;90.10;;;21.92;57.35;99880.25;5014539;28;20286;-58
2023/08/02 02:03:39;;;;;;;2.40;2.20;;;19.10;90.10;;;21.94;57.20;99872.78;5014482;28;20206;-60
2023/08/02 02:06:06;;;;;;;4.30;2.43;;;19.10;90.10;;;21.95;57.27;99869.00;5014336;28;20579;-58
2023/08/02 02:08:33;;;;;;;6.70;2.10;;;19.10;90.00;;;21.93;57.20;99869.28;5013888;28;20191;-57
2023/08/02 02:11:01;;;;;;;6.40;2.57;;;19.10;90.00;;;21.91;57.40;99873.31;5014086;28;20286;-57
2023/08/02 02:13:28;;;;;;;5.20;2.20;;;19.10;89.80;;;21.92;57.49;99874.91;5014229;28;20730;-59
2023/08/02 02:15:56;;;;;;;7.03;2.40;;;19.10;89.80;;;21.89;57.10;99876.28;5014981;28;20221;-60
2023/08/02 02:18:23;;;;;;;5.37;2.13;;;19.10;89.90;;;21.91;57.23;99884.03;5016860;28;20241;-60
2023/08/02 02:20:50;;;;;;;6.07;2.43;;;19.10;89.90;;;21.90;57.21;99879.72;5014041;28;20221;-58
2023/08/02 02:23:17;;;;;;;5.97;2.83;;;19.10;89.90;;;21.90;56.88;99891.25;5013768;28;20191;-59
2023/08/02 02:25:44;;;;;;;5.60;2.90;;;19.10;90.00;;;21.88;57.30;99885.38;5013947;28;20215;-60
2023/08/02 02:28:12;;;;;;;4.40;2.57;;;19.10;90.00;;;21.88;57.03;99887.25;5013913;28;20716;-56
2023/08/02 02:30:42;;;;;;;6.67;2.80;;;19.10;90.00;;;21.86;56.90;99892.88;5015303;28;20221;-60
2023/08/02 02:33:09;;;;;;;7.97;2.70;;;19.10;90.00;;;21.86;57.27;99892.06;5017872;28;20195;-59
2023/08/02 02:35:36;;;;;;;4.27;2.70;;;19.10;90.00;;;21.82;57.03;99891.75;5017039;28;20191;-59
2023/08/02 02:38:03;;;;;;;4.60;2.50;;;19.10;90.10;;;21.82;57.34;99885.63;5003897;28;20202;-59
2023/08/02 02:40:30;;;;;;;3.67;2.33;;;19.10;90.10;;;21.81;57.48;99881.31;4997202;28;20216;-59
2023/08/02 02:42:57;;;;;;;4.87;2.97;;;19.00;90.10;;;21.70;57.83;99877.03;4998325;28;20199;-57
2023/08/02 02:45:25;;;;;;;6.07;2.53;;;19.00;90.20;;;21.70;57.59;99885.09;4997948;28;20217;-60
2023/08/02 02:47:52;;;;;;;5.03;2.50;;;19.00;90.10;;;21.69;57.80;99873.56;4998365;28;20199;-60
2023/08/02 02:50:20;;;;;;;6.47;2.63;;;19.00;90.20;;;21.70;58.13;99872.50;4997573;28;20262;-56
2023/08/02 02:52:47;;;;;;;5.53;2.43;;;19.00;90.30;;;21.71;58.07;99866.06;4997752;28;20252;-59
2023/08/02 02:55:14;;;;;;;5.73;2.60;;;19.00;90.20;;;21.71;57.77;99867.91;4998053;28;20206;-58
2023/08/02 02:57:41;;;;;;;5.17;2.37;;;19.00;90.30;;;21.72;58.17;99869.53;4998146;28;20191;-60
2023/08/02 03:00:09;;;;;;;3.80;2.33;;;19.00;90.30;;;21.74;57.68;99862.03;4996514;28;20242;-62
2023/08/02 03:02:37;;;;;;;7.47;3.17;;;19.00;90.30;;;21.71;57.56;99857.19;4998478;28;20737;-60
2023/08/02 03:05:05;;;;;;;7.70;3.17;;;19.00;90.40;;;21.70;58.25;99861.78;4997527;28;20195;-59
2023/08/02 03:07:32;;;;;;;3.33;2.27;;;19.00;90.30;;;21.71;58.07;99867.91;4997344;28;20198;-58
2023/08/02 03:09:59;;;;;;;8.67;3.07;;;19.00;90.30;;;21.70;57.78;99860.97;4997134;28;20216;-60
2023/08/02 03:12:27;;;;;;;6.90;2.47;;;19.00;90.30;;;21.74;57.81;99868.19;4996657;28;20219;-60
2023/08/02 03:14:54;;;;;;;6.30;3.07;;;19.00;90.40;;;21.78;57.98;99857.72;4997592;28;20202;-58
2023/08/02 03:17:21;;;;;;;5.00;3.00;;;19.00;90.40;;;21.80;57.65;99855.63;4997935;28;20202;-59
2023/08/02 03:19:49;;;;;;;8.40;3.13;;;19.00;90.40;;;21.82;57.89;99853.47;4997226;28;20246;-59
2023/08/02 03:22:16;;;;;;;3.77;2.50;;;19.00;90.40;;;21.79;57.60;99845.94;4996508;28;20243;-58
2023/08/02 03:24:43;;;;;;;7.03;3.00;;;19.00;90.40;;;21.79;57.91;99851.31;4997347;28;20284;-61
2023/08/02 03:27:10;;;;;;;5.77;2.90;;;19.10;90.70;;;21.77;58.05;99848.09;4996987;28;20673;-59
2023/08/02 03:29:37;;;;;;;6.03;2.70;;;19.10;90.30;;;21.76;57.92;99849.16;4997172;28;20689;-60
2023/08/02 03:32:05;;;;;;;5.90;2.80;;;19.10;90.30;;;21.78;58.23;99849.69;4997197;28;20195;-58
2023/08/02 03:34:32;;;;;;;4.60;2.50;;;19.10;90.30;;;21.78;58.25;99849.69;4997109;28;20195;-58
2023/08/02 03:37:00;;;;;;;9.03;3.20;;;19.10;90.30;;;21.74;57.97;99845.97;4996991;28;20188;-59
2023/08/02 03:39:27;;;;;;;6.00;2.90;;;19.10;90.30;;;21.73;58.16;99839.78;4997044;28;20298;-59
2023/08/02 03:41:55;;;;;;;7.67;2.40;;;19.10;90.30;;;21.74;58.08;99841.41;4996969;28;20200;-60
2023/08/02 03:44:22;;;;;;;3.93;2.50;;;19.10;90.30;;;21.77;57.99;99834.72;5011329;28;20299;-59
2023/08/02 03:46:49;;;;;;;5.73;3.27;;;19.10;90.40;;;21.77;57.61;99827.47;4995983;28;20585;-60
2023/08/02 03:49:16;;;;;;;6.90;2.90;;;19.10;90.30;;;21.69;57.78;99830.69;4996340;28;20212;-60
2023/08/02 03:51:43;;;;;;;7.90;3.03;;;19.10;90.20;;;21.62;58.02;99818.63;4996820;28;20195;-59
2023/08/02 03:54:15;;;;;;;5.80;2.60;;;19.10;90.10;;;21.53;58.38;99813.03;4997049;28;20187;-56
2023/08/02 03:56:42;;;;;;;5.10;2.90;;;19.00;90.10;;;21.47;58.17;99803.38;4996520;28;20191;-58
2023/08/02 03:59:10;;;;;;;5.73;3.17;;;19.00;90.20;;;21.44;58.59;99820.78;4996548;28;20219;-58
2023/08/02 04:01:37;;;;;;;6.33;2.97;;;18.90;90.10;;;21.40;58.41;99821.59;4996841;28;20227;-56
2023/08/02 04:04:04;;;;;;;7.33;2.87;;;18.90;90.20;;;21.36;58.47;99817.84;4995832;28;20236;-58
2023/08/02 04:06:31;;;;;;;5.27;2.97;;;18.80;90.20;;;21.33;58.67;99811.16;4996526;28;20568;-57
2023/08/02 04:08:58;;;;;;;7.27;2.97;;;18.80;90.30;;;21.29;59.10;99810.09;4996158;28;20231;-59
2023/08/02 04:11:27;;;;;;;7.07;3.13;;;18.80;90.50;;;21.24;58.74;99793.22;4996290;28;20657;-60
2023/08/02 04:13:54;;;;;;;7.37;2.80;;;18.70;90.50;;;21.24;58.79;99799.38;4996442;28;20222;-60
2023/08/02 04:16:21;;;;;;;6.33;3.37;;;18.70;90.50;;;21.25;59.21;99806.31;4995076;28;20606;-58
2023/08/02 04:18:48;;;;;;;9.30;3.60;;;18.70;90.60;;;21.27;58.99;99801.53;4996289;28;20200;-59
2023/08/02 04:21:19;;;;;;;6.47;3.17;;;18.70;90.50;;;21.28;58.71;99796.94;4994634;28;20202;-63
2023/08/02 04:23:49;;;;;;;9.43;3.17;;;18.70;90.50;;;21.24;58.94;99788.66;4995180;28;20637;-60
2023/08/02 04:26:16;;;;;;;8.50;3.27;;;18.70;90.50;;;21.21;59.09;99794.53;4996248;28;20238;-61
2023/08/02 04:28:45;;;;;;;7.20;3.33;;;18.70;90.50;;;21.19;58.71;99791.34;4994800;28;20298;-59
2023/08/02 04:31:13;;;;;;;6.07;3.33;;;18.70;90.90;;;21.22;58.97;99790.81;4995852;28;20601;-59
2023/08/02 04:33:40;;;;;;;9.03;3.93;;;18.70;90.60;;;21.23;59.27;99788.91;4994851;28;20204;-59
2023/08/02 04:36:07;;;;;;;8.17;3.10;;;18.70;90.60;;;21.24;58.71;99795.88;4996088;28;20676;-61
2023/08/02 04:38:34;;;;;;;9.07;3.30;;;18.70;90.60;;;21.24;59.34;99794.03;4995701;28;20195;-58
2023/08/02 04:41:01;;;;;;;9.67;3.23;;;18.70;90.60;;;21.29;58.98;99791.34;4995939;28;20214;-60
2023/08/02 04:43:28;;;;;;;8.30;2.87;;;18.70;90.60;;;21.32;58.73;99792.69;4995106;28;20220;-61
2023/08/02 04:45:56;;;;;;;7.50;3.13;;;18.70;90.50;;;21.37;58.59;99790.78;4995806;28;20196;-59
2023/08/02 04:48:23;;;;;;;7.33;3.07;;;18.70;90.50;;;21.40;58.13;99792.94;4995642;28;20192;-60
2023/08/02 04:50:50;;;;;;;8.63;3.50;;;18.80;90.50;;;21.42;58.14;99798.81;4995603;28;20766;-61
2023/08/02 04:53:17;;;;;;;7.43;3.27;;;18.80;90.40;;;21.48;58.58;99791.59;4994768;28;20257;-58
2023/08/02 04:55:45;;;;;;;8.13;3.70;;;18.80;90.30;;;21.52;58.34;99779.28;4995618;28;20192;-60
2023/08/02 04:58:12;;;;;;;6.33;3.27;;;18.80;90.20;;;21.53;58.12;99775.53;4995493;28;20195;-59
2023/08/02 05:00:39;;;;;;;7.33;3.30;;;18.90;90.10;;;21.55;57.75;99773.38;4995458;28;20254;-57
2023/08/02 05:03:08;;;;;;;10.37;3.20;;;18.90;90.10;;;21.56;57.47;99765.06;4995558;28;20219;-63
2023/08/02 05:05:35;;;;;;;6.17;2.83;;;18.90;90.00;;;21.58;57.46;99751.44;4995086;28;20196;-60
2023/08/02 05:08:02;;;;;;;9.90;4.43;;;18.90;89.90;;;21.59;57.60;99763.72;4995122;28;20682;-57
2023/08/02 05:10:29;;;;;;;6.40;3.20;;;19.00;89.80;;;21.59;57.68;99767.22;4998874;28;20295;-59
2023/08/02 05:12:56;;;;;;;6.43;2.93;;;19.00;89.80;;;21.56;57.62;99769.66;4996492;28;20282;-60
2023/08/02 05:15:23;;;;;;;5.57;3.27;;;19.00;89.70;;;21.58;57.43;99768.28;4993713;28;20628;-59
2023/08/02 05:17:50;;;;;;;8.57;3.33;;;19.00;89.80;;;21.63;57.63;99764.00;4995435;28;20278;-60
2023/08/02 05:20:18;;;;;;;6.60;2.90;;;19.10;89.70;;;21.65;57.45;99772.56;4994211;28;20265;-61
2023/08/02 05:22:45;;;;;;;5.80;2.67;;;19.10;89.60;;;21.69;57.26;99771.75;4995205;28;20230;-61
2023/08/02 05:25:12;;;;;;;7.70;3.63;;;19.10;89.60;;;21.75;57.25;99769.88;4994746;28;20196;-61
2023/08/02 05:27:39;;;;;;;8.87;3.40;;;19.10;89.70;;;21.77;57.27;99776.56;4994105;28;20706;-59
2023/08/02 05:30:08;;;;;;;8.13;3.17;;;19.10;89.50;;;21.81;57.14;99766.09;4994372;28;20290;-60
2023/08/02 05:32:35;;;;;;;6.53;3.10;;;19.10;89.40;;;21.83;57.34;99759.41;4994857;28;20203;-61
2023/08/02 05:35:03;;;;;;;7.80;3.63;;;19.20;89.30;;;21.80;57.08;99754.56;4994183;28;20196;-62
2023/08/02 05:37:31;;;;;;;7.70;3.43;;;19.20;89.00;;;21.76;56.74;99758.06;4994527;28;20191;-59
2023/08/02 05:39:58;;;;;;;9.63;3.30;;;19.20;88.70;;;21.67;57.32;99749.78;4994224;28;20696;-60
2023/08/02 05:42:25;;;;;;;6.47;3.07;;;19.20;88.70;;;21.67;57.45;99749.00;4994568;28;20199;-60
2023/08/02 05:44:52;;;;;;;6.33;3.40;;;19.20;88.80;;;21.63;57.39;99742.56;4994886;28;20235;-61
2023/08/02 05:47:19;;;;;;;8.40;3.93;;;19.10;88.80;;;21.64;57.45;99738.81;4994309;28;20225;-60
2023/08/02 05:49:48;;;;;;;4.57;3.37;;;19.10;88.90;;;21.69;57.29;99742.28;4994234;28;20220;-60
2023/08/02 05:52:15;;;;;;;7.80;3.63;;;19.20;89.00;;;21.71;57.01;99739.31;4993450;28;20234;-58
2023/08/02 05:54:44;;;;;;;7.13;3.90;;;19.10;88.90;;;21.68;57.04;99740.66;4994915;28;20276;-59
2023/08/02 05:57:11;;;;;;;9.23;4.43;;;19.20;89.00;;;21.75;57.26;99745.75;4994334;28;20224;-60
2023/08/02 05:59:38;;;;;;;8.23;4.37;;;19.20;89.10;;;21.75;57.25;99724.31;4994372;28;20624;-60
2023/08/02 06:02:07;;;;;;;8.90;3.97;;;19.20;89.00;;;21.75;57.16;99725.09;4994199;28;20196;-59
2023/08/02 06:04:38;;;;;;;6.20;3.90;;;19.20;89.00;;;21.80;57.23;99721.63;4991978;28;20208;-58
2023/08/02 06:07:06;;;;;;;12.70;5.00;;;19.20;89.10;;;21.87;57.00;99719.50;4994292;28;20246;-59
2023/08/02 06:09:34;;;;;;;9.97;4.60;;;19.30;89.00;;;21.82;56.54;99722.16;4994085;28;20222;-59
2023/08/02 06:12:02;;;;;;;8.33;4.77;;;19.30;88.60;;;21.88;57.00;99713.06;4994657;28;20619;-60
2023/08/02 06:14:29;;;;;;;6.37;4.30;;;19.30;88.90;;;21.89;56.84;99704.75;4994265;28;20270;-59
2023/08/02 06:16:56;;;;;;;11.37;4.70;;;19.30;88.80;;;21.97;56.69;99701.50;4994420;28;20278;-60
2023/08/02 06:19:23;;;;;;;6.87;4.37;;;19.30;88.70;;;22.05;56.29;99692.09;4993696;28;20581;-59
2023/08/02 06:21:50;;;;;;;8.60;4.43;;;19.40;88.60;;;22.07;56.57;99689.94;4994055;28;20226;-62
2023/08/02 06:24:17;;;;;;;10.33;4.73;;;19.40;88.50;;;22.13;56.65;99688.84;4993701;28;20210;-62
2023/08/02 06:26:44;;;;;;;8.47;4.93;;;19.50;88.50;;;22.12;56.25;99682.66;4993851;28;20226;-60
2023/08/02 06:29:14;;;;;;;6.20;3.80;;;19.50;88.30;;;22.16;56.37;99682.91;4992343;28;20260;-61
2023/08/02 06:31:41;;;;;;;7.73;3.87;;;19.60;88.30;;;22.19;56.14;99682.34;4994147;28;20234;-60
2023/08/02 06:34:09;;;;;;;7.47;3.60;;;19.60;88.10;;;22.20;56.21;99682.06;4993984;28;20195;-61
2023/08/02 06:36:38;;;;;;;8.10;4.43;;;19.60;88.00;;;22.20;56.02;99683.97;4993565;28;20187;-61
2023/08/02 06:39:05;;;;;;;6.43;4.20;;;19.60;88.00;;;22.23;56.15;99672.66;4993631;28;20611;-61
2023/08/02 06:41:32;;;;;;;7.17;3.93;;;19.70;88.10;;;22.37;56.20;99673.66;4993338;28;20204;-60
2023/08/02 06:43:59;;;;;;;5.07;3.17;;;19.70;88.20;;;22.50;55.46;99673.06;4993523;28;20196;-60
2023/08/02 06:46:29;;;;;;;5.33;3.40;;;19.70;87.70;;;22.49;55.40;99662.63;4993445;28;20192;-62
2023/08/02 06:48:56;;;;;;;10.10;4.20;;;19.80;87.30;;;22.54;55.29;99657.19;4993386;28;20188;-59
2023/08/02 06:51:23;;;;;;;7.77;3.77;;;19.90;87.40;;;22.49;55.24;99649.97;4993322;28;20236;-60
2023/08/02 06:53:51;;;;;;;7.80;3.63;;;19.90;86.90;;;22.47;55.18;99654.03;4992784;28;20192;-60
2023/08/02 06:56:18;;;;;;;8.03;4.57;;;19.90;86.90;;;22.48;55.33;99643.03;4993685;28;20282;-61
2023/08/02 06:58:45;;;;;;;10.30;3.93;;;19.90;86.70;;;22.54;55.31;99644.59;4992698;28;20255;-58
2023/08/02 07:01:14;;;;;;;7.27;3.57;;;19.90;86.70;;;22.71;55.22;99642.34;4994129;28;20649;-59
2023/08/02 07:03:44;;;;;;;7.73;3.43;;;20.00;87.70;;;22.86;54.53;99639.53;4993636;28;20195;-61
2023/08/02 07:06:13;;;;;;;5.83;3.33;;;20.10;86.90;;;22.80;54.87;99634.47;4993584;28;20196;-60
2023/08/02 07:08:41;;;;;;;5.13;3.23;;;20.10;86.30;;;22.80;54.58;99635.28;4993322;28;20227;-61
2023/08/02 07:11:09;;;;;;;6.03;3.57;;;20.20;86.20;;;22.82;54.64;99622.38;4990515;28;20323;-59
2023/08/02 07:13:45;;;;;;;6.63;3.77;;;20.20;85.80;;;22.86;54.40;99617.25;4984140;28;20227;-60
2023/08/02 07:16:12;;;;;;;4.97;3.50;;;20.30;85.80;;;22.96;54.34;99624.41;5015277;28;20199;-61
2023/08/02 07:18:39;;;;;;;7.53;3.87;;;20.30;85.90;;;22.91;54.49;99625.25;5006758;28;20188;-59
2023/08/02 07:21:09;;;;;;;7.40;3.80;;;20.30;85.60;;;22.73;54.35;99628.63;4996116;28;20230;-59
2023/08/02 07:23:37;;;;;;;9.50;4.20;;;20.30;85.70;;;22.74;54.99;99627.56;4996838;28;20263;-60
2023/08/02 07:26:05;;;;;;;5.93;3.70;;;20.30;86.20;;;22.76;54.56;99638.81;5012358;28;20196;-60
2023/08/02 07:28:32;;;;;;;6.10;3.43;;;20.20;86.00;;;22.77;54.92;99635.84;4996485;28;20215;-61
2023/08/02 07:31:07;;;;;;;6.40;3.10;;;20.20;86.00;;;22.71;54.79;99626.25;4996522;28;20618;-60
2023/08/02 07:33:34;;;;;;;5.47;3.07;;;20.20;86.00;;;22.64;54.97;99620.41;4996600;28;20194;-61
2023/08/02 07:36:01;;;;;;;7.90;3.40;;;20.10;85.90;;;22.59;55.19;99623.09;4996969;28;20218;-64
2023/08/02 07:38:31;;;;;;;5.30;3.23;;;20.10;86.10;;;22.48;55.53;99613.53;4996486;28;20200;-60
2023/08/02 07:41:01;;;;;;;6.00;3.37;;;20.10;86.40;;;22.48;55.77;99610.84;4996806;28;20236;-60
2023/08/02 07:43:29;;;;;;;7.40;3.33;;;20.10;86.60;;;22.59;55.76;99607.00;5008810;28;20202;-60
2023/08/02 07:45:56;;;;;;;7.47;3.30;;;20.10;87.00;;;22.75;55.31;99600.44;4998726;28;20196;-59
2023/08/02 07:48:23;;;;;;;4.57;3.37;;;20.10;86.80;;;22.97;55.18;99593.78;4996391;28;20274;-60
2023/08/02 07:50:50;;;;;;;5.93;3.50;;;20.20;87.10;;;23.12;54.29;99590.97;5005726;28;20238;-61
2023/08/02 07:53:17;;;;;;;7.33;3.37;;;20.30;86.20;;;23.11;53.52;99597.41;5016706;28;20231;-60
2023/08/02 07:55:45;;;;;;;4.70;3.30;;;20.40;85.20;;;23.09;53.74;99604.94;5015122;28;20191;-60
2023/08/02 07:58:12;;;;;;;4.60;3.20;;;20.40;85.10;;;23.19;53.61;99589.53;5015964;28;20191;-61
2023/08/02 08:00:39;;;;;;;6.47;2.80;;;20.50;85.10;;;23.20;53.49;99590.34;5015164;28;20229;-61
2023/08/02 08:03:06;;;;;;;9.40;3.40;;;20.60;84.90;;;23.09;53.51;99578.91;5015239;28;20282;-60
2023/08/02 08:05:33;;;;;;;7.10;3.17;;;20.50;84.40;;;23.10;53.73;99579.72;5015661;28;20559;-60
2023/08/02 08:08:00;;;;;;;6.63;3.70;;;20.60;84.90;;;23.11;53.95;99594.72;4996470;28;20239;-58
2023/08/02 08:10:27;;;;;;;4.70;3.33;;;20.60;84.80;;;22.90;54.33;99584.19;4989579;28;20277;-63
2023/08/02 08:12:55;;;;;;;5.10;3.00;;;20.50;84.70;;;22.82;54.29;99578.66;4993814;28;20278;-57
2023/08/02 08:15:22;;;;;;;5.60;2.70;;;20.50;84.50;;;22.70;54.52;99575.53;5006520;28;20290;-60
2023/08/02 08:17:50;;;;;;;5.07;3.30;;;20.40;84.40;;;22.53;54.99;99562.53;4995219;28;20227;-61
2023/08/02 08:20:17;;;;;;;5.17;3.20;;;20.30;84.50;;;22.61;54.85;99559.25;4994377;28;20230;-59
2023/08/02 08:22:44;;;;;;;4.83;2.70;;;20.40;84.90;;;22.56;55.07;99553.88;5003771;28;20274;-59
2023/08/02 08:25:11;;;;;;;6.03;3.07;;;20.30;85.00;;;22.55;54.70;99552.31;5005571;28;20200;-60
2023/08/02 08:27:38;;;;;;;6.43;3.30;;;20.30;84.90;;;22.70;54.92;99548.72;4995001;28;20291;-62
2023/08/02 08:30:09;;;;;;;6.23;3.27;;;20.30;85.40;;;22.87;54.81;99555.22;4984276;28;20315;-59
2023/08/02 08:32:36;;;;;;;6.87;3.60;;;20.40;85.80;;;22.96;54.43;99546.56;4994522;28;20366;-60
2023/08/02 08:35:04;;;;;;;6.00;2.77;;;20.40;85.50;;;23.03;54.29;99536.28;4993836;28;20200;-60
2023/08/02 08:37:31;;;;;;;8.13;3.77;;;20.40;85.20;;;23.13;54.00;99536.19;4991214;28;20203;-59
2023/08/02 08:39:58;;;;;;;7.03;3.77;;;20.50;85.40;;;23.06;53.39;99530.34;5007472;28;20231;-59
2023/08/02 08:42:48;;;;;;;5.13;3.13;;;20.50;85.00;;;22.99;53.91;99529.91;4981719;28;20203;-59
2023/08/02 08:45:21;;;;;;;5.47;2.93;;;20.50;84.60;;;23.01;53.78;99520.44;4987749;28;20184;-60
2023/08/02 08:47:50;;;;;;;5.50;3.27;;;20.50;84.60;;;23.00;53.74;99526.13;4989468;28;20274;-58
2023/08/02 08:50:20;;;;;;;4.93;3.17;;;20.50;84.30;;;23.06;53.99;99519.63;4997279;28;20302;-59
2023/08/02 08:52:52;;;;;;;5.03;3.07;;;20.50;84.60;;;23.10;53.52;99523.31;4996963;28;20287;-59
2023/08/02 08:55:25;;;;;;;3.83;3.47;;;20.50;84.50;;;23.16;53.46;99522.16;4994131;28;20246;-60
2023/08/02 08:57:52;;;;;;;6.67;3.30;;;20.60;84.40;;;23.17;53.39;99510.34;5010888;28;20192;-58
2023/08/02 09:00:26;;;;;;;10.87;3.30;;;20.60;84.20;;;23.19;53.43;99492.06;4993023;28;20299;-61
2023/08/02 09:02:59;;;;;;;5.87;3.60;;;20.60;84.30;;;23.16;53.32;99481.88;4993096;28;20279;-59
2023/08/02 09:05:30;;;;;;;5.00;4.10;;;20.60;84.10;;;23.15;53.73;99475.75;4987728;28;20271;-60
2023/08/02 09:07:58;;;;;;;6.17;4.17;;;20.60;84.40;;;23.18;53.67;99479.72;4989645;28;20225;-57
2023/08/02 09:10:26;;;;;;;5.47;3.10;;;20.60;84.60;;;23.16;53.86;99476.50;4994331;28;20224;-59
2023/08/02 09:12:54;;;;;;;7.43;3.77;;;20.60;84.40;;;23.20;53.62;99477.56;4984141;28;20188;-60
2023/08/02 09:15:24;;;;;;;5.77;3.73;;;20.70;84.70;;;23.29;53.89;99465.09;5010131;28;20199;-62
2023/08/02 09:17:54;;;;;;;4.43;3.40;;;20.70;84.80;;;23.33;53.76;99447.28;4992132;28;20200;-59
2023/08/02 09:20:24;;;;;;;4.70;3.73;;;20.70;84.40;;;23.31;53.47;99452.16;5000469;28;20220;-61
2023/08/02 09:22:52;;;;;;;6.77;3.70;;;20.80;84.30;;;23.33;53.67;99449.97;4995342;28;20208;-60
2023/08/02 09:25:22;;;;;;;6.07;3.80;;;20.80;84.60;;;23.32;53.62;99456.44;4992661;28;20226;-61
2023/08/02 09:27:51;;;;;;;6.37;3.97;;;20.80;84.80;;;23.34;53.92;99438.16;4993131;28;20208;-61
2023/08/02 09:30:26;;;;;;;4.50;3.60;;;20.80;84.80;;;23.27;53.57;99445.78;4989988;28;20228;-59
2023/08/02 09:33:02;;;;;;;5.67;3.73;;;20.80;84.60;;;23.22;53.70;99437.78;4988483;28;20266;-66
2023/08/02 09:35:33;;;;;;;6.53;3.93;;;20.80;84.60;;;23.18;54.03;99442.13;4995954;28;20253;-62
2023/08/02 09:38:00;;;;;;;7.83;3.97;;;20.70;84.50;;;23.17;53.66;99430.59;4992366;28;20668;-59
2023/08/02 09:40:36;;;;;;;6.20;3.60;;;20.80;84.50;;;23.17;53.76;99432.47;4988552;28;20280;-59
2023/08/02 09:43:23;;;;;;;5.50;3.43;;;20.70;84.30;;;23.21;53.93;99415.50;4992164;28;20200;-60
2023/08/02 09:45:52;;;;;;;5.33;3.13;;;20.80;84.50;;;23.29;53.73;99400.63;5001042;28;20204;-60
2023/08/02 09:48:19;;;;;;;5.97;3.50;;;20.70;84.40;;;23.29;53.34;99369.19;4995511;28;20219;-56
2023/08/02 09:50:55;;;;;;;6.53;3.23;;;20.80;84.30;;;23.23;53.40;99354.22;4998384;28;20223;-59
2023/08/02 09:53:24;;;;;;;5.40;3.40;;;20.80;84.10;;;23.25;53.45;99364.72;5006720;28;20249;-59
2023/08/02 09:55:55;;;;;;;4.90;3.60;;;20.80;84.00;;;23.26;53.37;99385.09;5004673;28;20286;-59
2023/08/02 09:58:25;;;;;;;6.67;3.80;;;20.80;84.30;;;23.08;54.50;99388.56;4997103;28;20211;-60
2023/08/02 10:00:54;;;;;;;4.90;3.73;;;20.70;85.30;;;22.95;55.49;99370.47;5000448;28;20287;-60
2023/08/02 10:03:26;;;;;;;6.67;4.53;;;20.70;86.30;;;22.76;56.47;99360.53;5009275;28;20219;-59
2023/08/02 10:05:58;;;;;;;3.83;3.43;;;20.60;86.90;;;22.71;57.40;99354.44;4995556;28;20206;-59
2023/08/02 10:08:31;;;;;;;6.47;3.53;;;20.60;87.80;;;22.69;58.03;99344.00;5003678;28;20725;-60
2023/08/02 10:11:00;;;;;;;8.43;3.90;;;20.50;88.60;;;22.71;57.51;99336.44;5002790;28;20231;-58
2023/08/02 10:13:37;;;;;;;6.33;3.70;;;20.50;88.40;;;22.61;58.03;99319.66;4992321;28;20203;-61
2023/08/02 10:16:06;;;;;;;4.83;3.30;;;20.40;88.80;;;22.63;57.96;99322.88;4979307;28;20279;-59
2023/08/02 10:18:36;;;;;;;4.83;2.87;;;20.40;88.90;;;22.63;57.91;99318.28;5005981;28;20231;-59
2023/08/02 10:21:05;;;;;;;6.53;3.80;;;20.40;88.90;;;22.65;58.06;99318.03;4989000;28;20799;-57
2023/08/02 10:23:34;;;;;;;4.97;3.60;;;20.40;89.10;;;22.74;57.55;99314.41;5003518;28;20198;-60
2023/08/02 10:26:02;;;;;;;5.97;3.63;;;20.40;88.90;;;22.87;57.49;99311.00;4991950;28;20195;-61